Time;durP1;ratioP1;P1;durP2;ratioP2;P2;SDS_P1;SDS_P2;PMS_P1;PMS_P2;Temp;Humidity;BMP_temperature;BMP_pressure;BME280_temperature;BME280_humidity;BME280_pressure;Samples;Min_cycle;Max_cycle;Signal;HPM_P1;HPM_P2
2022/01/17 00:01:07;;;;;;;16.83;3.30;;;6.20;99.90;;;;;;4996276;28;20033;-74
2022/01/17 00:03:33;;;;;;;15.15;2.55;;;6.30;99.90;;;;;;5012792;28;20132;-74
2022/01/17 00:05:59;;;;;;;14.98;2.92;;;6.20;99.90;;;;;;5013121;28;20758;-74
2022/01/17 00:08:26;;;;;;;14.93;2.20;;;6.20;99.90;;;;;;5011910;28;20060;-74
2022/01/17 00:10:52;;;;;;;19.77;2.70;;;6.20;99.90;;;;;;5029777;28;20106;-74
2022/01/17 00:13:26;;;;;;;19.37;4.03;;;6.30;99.90;;;;;;5043615;28;20071;-74
2022/01/17 00:16:41;;;;;;;13.63;2.43;;;6.10;99.90;;;;;;5052691;28;20045;-74
2022/01/17 00:21:13;;;;;;;16.67;3.07;;;6.00;99.90;;;;;;5032241;28;20056;-74
2022/01/17 00:23:39;;;;;;;17.53;3.07;;;6.00;99.90;;;;;;5043974;28;20044;-74
2022/01/17 00:26:05;;;;;;;14.10;2.70;;;6.00;99.90;;;;;;5015256;28;20491;-74
2022/01/17 00:28:32;;;;;;;14.60;2.53;;;5.90;99.90;;;;;;5011735;28;20054;-74
2022/01/17 00:31:01;;;;;;;14.83;3.70;;;6.00;99.90;;;;;;5028582;28;20051;-74
2022/01/17 00:33:27;;;;;;;14.80;2.83;;;5.90;99.90;;;;;;5028383;28;20056;-74
2022/01/17 00:35:53;;;;;;;13.17;2.77;;;5.90;99.90;;;;;;5028588;28;20514;-75
2022/01/17 00:38:19;;;;;;;15.87;2.90;;;5.90;99.90;;;;;;5012481;28;20048;-74
2022/01/17 00:40:44;;;;;;;18.67;3.90;;;5.90;99.90;;;;;;5028493;28;20049;-74
2022/01/17 00:43:11;;;;;;;13.63;2.80;;;5.90;99.90;;;;;;4995656;28;20432;-74
2022/01/17 00:45:40;;;;;;;14.60;2.57;;;5.80;99.90;;;;;;4996080;28;20049;-75
2022/01/17 00:48:06;;;;;;;13.87;2.60;;;5.80;99.90;;;;;;5029945;28;20080;-74
2022/01/17 00:50:34;;;;;;;14.17;2.77;;;5.80;99.90;;;;;;5051395;28;20058;-74
2022/01/17 00:53:02;;;;;;;15.17;2.70;;;5.80;99.90;;;;;;5034916;28;20044;-74
2022/01/17 00:55:29;;;;;;;18.73;3.33;;;5.80;99.90;;;;;;5051829;28;20059;-74
2022/01/17 00:57:55;;;;;;;19.40;3.67;;;5.80;99.90;;;;;;5041230;28;20076;-74
2022/01/17 01:00:21;;;;;;;14.97;2.70;;;5.80;99.90;;;;;;5014673;28;20465;-74
2022/01/17 01:02:47;;;;;;;14.33;2.87;;;5.90;99.90;;;;;;5031298;28;20079;-74
2022/01/17 01:05:13;;;;;;;20.43;3.23;;;5.90;99.90;;;;;;5032046;28;20044;-74
2022/01/17 01:07:39;;;;;;;18.23;3.17;;;5.90;99.90;;;;;;5015036;28;20056;-74
2022/01/17 01:10:10;;;;;;;19.17;3.03;;;5.90;99.90;;;;;;5030740;28;20087;-75
2022/01/17 01:12:38;;;;;;;18.80;3.27;;;5.90;99.90;;;;;;4999533;28;20092;-75
2022/01/17 01:15:06;;;;;;;17.90;3.77;;;5.90;99.90;;;;;;5031528;28;20041;-75
2022/01/17 01:17:47;;;;;;;24.60;3.23;;;5.90;99.90;;;;;;5047335;28;20434;-74
2022/01/17 01:28:21;;;;;;;20.00;3.20;;;5.70;99.90;;;;;;5029611;28;20081;-74
2022/01/17 01:30:50;;;;;;;16.93;3.07;;;5.70;99.90;;;;;;5031189;28;20092;-75
2022/01/17 01:33:23;;;;;;;17.80;3.60;;;5.60;99.90;;;;;;5015254;28;20514;-75
2022/01/17 01:35:56;;;;;;;22.63;3.47;;;5.60;99.90;;;;;;5030612;28;20084;-74
2022/01/17 01:38:22;;;;;;;17.03;3.23;;;5.60;99.90;;;;;;5015011;28;20085;-74
2022/01/17 01:40:48;;;;;;;18.93;3.57;;;5.60;99.90;;;;;;5014146;28;20076;-74
2022/01/17 01:43:14;;;;;;;23.73;3.73;;;5.60;99.90;;;;;;4998411;28;20049;-74
2022/01/17 01:45:39;;;;;;;18.40;2.80;;;5.50;99.90;;;;;;4997598;28;20048;-75
2022/01/17 01:48:08;;;;;;;15.17;2.70;;;5.50;99.90;;;;;;5047930;28;20097;-74
2022/01/17 01:50:34;;;;;;;15.73;2.77;;;5.50;99.90;;;;;;5034384;28;20052;-74
2022/01/17 01:53:00;;;;;;;16.13;2.87;;;5.50;99.90;;;;;;5067813;28;20105;-75
2022/01/17 01:55:26;;;;;;;16.60;3.60;;;5.50;99.90;;;;;;5034303;28;20053;-75
2022/01/17 01:57:52;;;;;;;18.73;3.37;;;5.50;99.90;;;;;;5040097;28;20045;-75
2022/01/17 02:00:18;;;;;;;20.50;2.77;;;5.50;99.90;;;;;;5030965;28;20052;-74
2022/01/17 02:02:45;;;;;;;13.93;2.60;;;5.50;99.90;;;;;;5014514;28;20477;-74
2022/01/17 02:05:11;;;;;;;20.33;3.40;;;5.40;99.90;;;;;;5030426;28;20045;-75
2022/01/17 02:07:38;;;;;;;17.97;2.77;;;5.40;99.90;;;;;;5030297;28;20049;-75
2022/01/17 02:10:05;;;;;;;15.47;3.20;;;5.40;99.90;;;;;;5013470;28;20059;-74
2022/01/17 02:12:32;;;;;;;18.40;2.90;;;5.40;99.90;;;;;;5031169;28;20053;-74
2022/01/17 02:14:58;;;;;;;20.63;3.60;;;5.40;99.90;;;;;;5010386;28;20063;-74
2022/01/17 02:17:25;;;;;;;19.57;3.43;;;5.40;99.90;;;;;;5044777;28;20391;-74
2022/01/17 02:20:04;;;;;;;19.50;3.57;;;5.50;99.90;;;;;;5013683;28;20037;-75
2022/01/17 02:22:30;;;;;;;21.37;3.73;;;5.50;99.90;;;;;;5039369;28;20960;-74
2022/01/17 02:24:56;;;;;;;15.27;3.07;;;5.50;99.90;;;;;;5013495;28;20123;-75
2022/01/17 02:27:22;;;;;;;15.40;3.20;;;5.50;99.90;;;;;;4988689;28;20042;-75
2022/01/17 02:29:48;;;;;;;22.60;3.90;;;5.50;99.90;;;;;;5025670;28;20052;-74
2022/01/17 02:32:14;;;;;;;15.97;2.77;;;5.50;99.90;;;;;;5015638;28;20107;-74
2022/01/17 02:34:41;;;;;;;15.90;3.17;;;5.50;99.90;;;;;;5031220;28;20253;-74
2022/01/17 02:37:10;;;;;;;17.37;4.27;;;5.50;99.90;;;;;;5034576;28;20517;-75
2022/01/17 02:39:36;;;;;;;16.40;2.83;;;5.40;99.90;;;;;;5034803;28;20605;-75
2022/01/17 02:42:03;;;;;;;21.53;4.27;;;5.40;99.90;;;;;;5021557;28;20764;-75
2022/01/17 02:44:29;;;;;;;18.43;2.97;;;5.40;99.90;;;;;;5014379;28;20042;-75
2022/01/17 02:46:55;;;;;;;20.40;3.50;;;5.30;99.90;;;;;;5014137;28;20052;-75
2022/01/17 02:49:21;;;;;;;17.03;3.03;;;5.30;99.90;;;;;;4998087;28;20427;-75
2022/01/17 02:51:48;;;;;;;13.70;2.80;;;5.40;99.90;;;;;;5030557;28;20052;-75
2022/01/17 02:54:15;;;;;;;18.17;3.23;;;5.30;99.90;;;;;;4989742;28;20533;-75
2022/01/17 02:56:41;;;;;;;18.63;3.90;;;5.30;99.90;;;;;;5010969;28;20055;-75
2022/01/17 02:59:07;;;;;;;17.73;3.33;;;5.20;99.90;;;;;;4999683;28;20041;-75
2022/01/17 03:01:33;;;;;;;18.27;3.23;;;5.20;99.90;;;;;;5011897;28;20073;-75
2022/01/17 03:04:00;;;;;;;17.57;3.10;;;5.10;99.90;;;;;;4965364;28;20549;-75
2022/01/17 03:06:27;;;;;;;16.30;3.13;;;5.10;99.90;;;;;;5010023;28;20182;-75
2022/01/17 03:08:53;;;;;;;16.90;3.30;;;5.10;99.90;;;;;;5011575;28;20060;-75
2022/01/17 03:11:22;;;;;;;25.00;4.10;;;5.00;99.90;;;;;;5012570;28;20052;-75
2022/01/17 03:13:50;;;;;;;17.20;3.13;;;5.00;99.90;;;;;;5011975;28;20605;-76
2022/01/17 03:16:17;;;;;;;22.37;3.53;;;5.10;99.90;;;;;;4996768;28;20046;-75
2022/01/17 03:18:47;;;;;;;20.63;3.70;;;5.00;99.90;;;;;;5011093;28;20404;-75
2022/01/17 03:21:16;;;;;;;21.95;3.63;;;5.00;99.90;;;;;;5011825;28;20037;-75
2022/01/17 03:23:42;;;;;;;13.30;2.67;;;5.10;99.90;;;;;;5012130;28;20053;-74
2022/01/17 03:26:09;;;;;;;16.10;2.97;;;5.20;99.90;;;;;;4996006;28;20030;-75
2022/01/17 03:28:35;;;;;;;18.33;3.53;;;5.20;99.90;;;;;;5047789;28;20063;-75
2022/01/17 03:31:02;;;;;;;14.03;2.73;;;5.20;99.90;;;;;;5031794;28;20068;-74
2022/01/17 03:33:28;;;;;;;14.00;2.87;;;5.30;99.90;;;;;;5033842;28;20132;-74
2022/01/17 03:35:57;;;;;;;16.33;2.50;;;5.20;99.90;;;;;;5047633;28;20495;-74
2022/01/17 03:38:27;;;;;;;14.83;3.27;;;5.40;99.90;;;;;;5023649;28;20037;-73
2022/01/17 03:40:53;;;;;;;17.43;2.90;;;5.30;99.90;;;;;;5014898;28;20499;-74
2022/01/17 03:43:20;;;;;;;17.83;3.07;;;5.40;99.90;;;;;;5030830;28;20056;-75
2022/01/17 03:45:46;;;;;;;15.83;3.13;;;5.40;99.90;;;;;;5043951;28;20049;-75
2022/01/17 03:48:13;;;;;;;16.97;3.00;;;5.40;99.90;;;;;;5030592;28;20072;-74
2022/01/17 03:50:40;;;;;;;13.57;2.60;;;5.40;99.90;;;;;;5025863;28;20045;-75
2022/01/17 03:53:05;;;;;;;17.17;2.63;;;5.40;99.90;;;;;;5047400;28;20060;-74
2022/01/17 03:55:34;;;;;;;15.67;3.00;;;5.50;99.90;;;;;;5032028;28;20049;-75
2022/01/17 03:58:00;;;;;;;19.60;3.43;;;5.50;99.90;;;;;;5028473;28;20040;-75
2022/01/17 04:00:30;;;;;;;14.77;2.47;;;5.50;99.90;;;;;;5026381;28;20491;-74
2022/01/17 04:02:57;;;;;;;16.50;2.40;;;5.50;99.90;;;;;;5030749;28;20043;-75
2022/01/17 04:05:23;;;;;;;18.83;3.40;;;5.50;99.90;;;;;;5009239;28;20071;-74
2022/01/17 04:07:49;;;;;;;13.53;2.50;;;5.50;99.90;;;;;;5026445;28;20503;-74
2022/01/17 04:10:16;;;;;;;13.07;3.47;;;5.50;99.90;;;;;;5028983;28;20043;-74
2022/01/17 04:12:43;;;;;;;15.20;2.70;;;5.50;99.90;;;;;;5048092;28;20045;-75
2022/01/17 04:15:10;;;;;;;18.03;2.63;;;5.50;99.90;;;;;;5013122;28;20502;-74
2022/01/17 04:17:36;;;;;;;16.07;2.43;;;5.50;99.90;;;;;;5012396;28;20458;-74
2022/01/17 04:20:07;;;;;;;16.57;2.93;;;5.50;99.90;;;;;;5027775;28;20037;-74
2022/01/17 04:22:42;;;;;;;13.70;2.60;;;5.60;99.90;;;;;;5011917;28;20494;-74
2022/01/17 04:25:09;;;;;;;18.77;2.80;;;5.60;99.90;;;;;;5031095;28;20049;-75
2022/01/17 04:27:35;;;;;;;18.50;3.27;;;5.50;99.90;;;;;;5021557;28;20057;-75
2022/01/17 04:30:04;;;;;;;13.43;2.63;;;5.50;99.90;;;;;;5011569;28;20204;-75
2022/01/17 04:32:30;;;;;;;16.40;2.70;;;5.50;99.90;;;;;;5028414;28;20393;-74
2022/01/17 04:34:58;;;;;;;17.37;2.73;;;5.50;99.90;;;;;;4992303;28;20041;-74
2022/01/17 04:37:25;;;;;;;13.87;3.13;;;5.40;99.90;;;;;;5011838;28;20049;-75
2022/01/17 04:39:51;;;;;;;13.53;2.63;;;5.50;99.90;;;;;;5012260;28;20041;-74
2022/01/17 04:42:24;;;;;;;13.87;2.60;;;5.40;99.90;;;;;;5011733;28;21006;-74
2022/01/17 04:45:08;;;;;;;18.70;3.10;;;5.40;99.90;;;;;;5010289;28;20044;-75
2022/01/17 04:47:42;;;;;;;16.20;2.50;;;5.40;99.90;;;;;;5008241;28;20428;-75
2022/01/17 04:50:12;;;;;;;15.37;2.57;;;5.40;99.90;;;;;;5028026;28;20059;-75
2022/01/17 04:52:38;;;;;;;14.32;2.78;;;5.40;99.90;;;;;;5026047;28;20041;-75
2022/01/17 04:55:06;;;;;;;16.37;2.53;;;5.40;99.90;;;;;;5007135;28;20052;-75
2022/01/17 04:57:32;;;;;;;15.83;3.10;;;5.40;99.90;;;;;;5008964;28;20103;-75
2022/01/17 04:59:58;;;;;;;13.37;2.80;;;5.50;99.90;;;;;;5002695;28;20521;-75
2022/01/17 05:02:25;;;;;;;14.90;2.90;;;5.60;99.90;;;;;;4992161;28;20054;-76
2022/01/17 05:04:51;;;;;;;13.13;2.67;;;5.60;99.90;;;;;;5007243;28;20159;-76
2022/01/17 05:07:17;;;;;;;14.57;2.50;;;5.60;99.90;;;;;;5027122;28;20125;-76
2022/01/17 05:09:44;;;;;;;16.47;2.60;;;5.60;99.90;;;;;;5011302;28;20052;-76
2022/01/17 05:12:12;;;;;;;17.33;3.47;;;5.70;99.90;;;;;;5011091;28;20412;-75
2022/01/17 05:14:43;;;;;;;21.07;3.57;;;5.70;99.90;;;;;;5027817;28;20519;-75
2022/01/17 05:17:34;;;;;;;16.43;3.43;;;5.70;99.90;;;;;;5006665;28;20045;-76
2022/01/17 05:19:58;;;;;;;17.67;3.40;;;5.80;99.90;;;;;;5010651;28;20458;-76
2022/01/17 05:22:28;;;;;;;20.30;3.50;;;5.80;99.90;;;;;;5009827;28;20045;-76
2022/01/17 05:25:02;;;;;;;15.90;2.90;;;5.90;99.90;;;;;;5016380;28;20525;-75
2022/01/17 05:27:28;;;;;;;15.67;2.90;;;6.10;99.90;;;;;;5019147;28;20492;-74
2022/01/17 05:29:53;;;;;;;17.47;3.80;;;6.10;99.90;;;;;;5021463;28;20045;-75
2022/01/17 05:32:20;;;;;;;14.20;3.40;;;6.20;99.90;;;;;;5006740;28;20159;-76
2022/01/17 05:34:47;;;;;;;18.80;3.50;;;6.30;99.90;;;;;;5020989;28;20143;-75
2022/01/17 05:37:13;;;;;;;15.13;3.17;;;6.20;99.90;;;;;;5025926;28;20443;-74
2022/01/17 05:39:40;;;;;;;16.15;3.67;;;6.30;99.90;;;;;;5011491;28;20053;-75
2022/01/17 05:42:07;;;;;;;16.90;3.60;;;6.30;99.90;;;;;;5026711;28;20045;-75
2022/01/17 05:44:33;;;;;;;20.05;4.43;;;6.30;99.90;;;;;;5011017;28;20053;-74
2022/01/17 05:47:00;;;;;;;21.00;4.23;;;6.40;99.90;;;;;;5004834;28;20064;-74
2022/01/17 05:49:26;;;;;;;17.30;4.13;;;6.30;99.90;;;;;;5025387;28;20063;-75
2022/01/17 05:51:52;;;;;;;15.90;4.07;;;6.40;99.90;;;;;;5027860;28;20041;-75
2022/01/17 05:54:18;;;;;;;15.30;3.50;;;6.40;99.90;;;;;;5010072;28;20053;-75
2022/01/17 05:56:44;;;;;;;20.93;4.23;;;6.30;99.90;;;;;;4993287;28;20470;-75
2022/01/17 05:59:10;;;;;;;17.63;4.10;;;6.40;99.90;;;;;;5009557;28;20459;-74
2022/01/17 06:01:40;;;;;;;21.55;4.38;;;6.40;99.90;;;;;;5004194;28;20058;-74
2022/01/17 06:04:06;;;;;;;14.68;4.25;;;6.40;99.90;;;;;;5007914;28;20049;-75
2022/01/17 06:06:32;;;;;;;18.77;4.45;;;6.30;99.90;;;;;;5011520;28;20048;-75
2022/01/17 06:08:57;;;;;;;17.95;5.05;;;6.40;99.90;;;;;;5029624;28;20042;-74
2022/01/17 06:11:23;;;;;;;17.90;4.78;;;6.50;99.90;;;;;;5029675;28;20110;-75
2022/01/17 06:13:49;;;;;;;19.52;5.00;;;6.60;99.90;;;;;;5024370;28;20076;-75
2022/01/17 06:16:15;;;;;;;19.63;4.95;;;6.50;99.90;;;;;;5028560;28;20041;-75
2022/01/17 06:18:41;;;;;;;19.08;4.72;;;6.50;99.90;;;;;;5030510;28;20474;-75
2022/01/17 06:21:06;;;;;;;19.23;5.47;;;6.50;99.90;;;;;;4998531;28;20049;-75
2022/01/17 06:23:32;;;;;;;21.65;5.25;;;6.60;99.90;;;;;;5013364;28;20092;-74
2022/01/17 06:25:58;;;;;;;24.65;5.95;;;6.60;99.90;;;;;;5015212;28;20095;-75
2022/01/17 06:28:24;;;;;;;22.33;5.87;;;6.60;99.90;;;;;;5012653;28;20492;-75
2022/01/17 06:30:50;;;;;;;17.52;4.47;;;6.50;99.90;;;;;;5014880;28;20107;-75
2022/01/17 06:33:16;;;;;;;20.10;5.70;;;6.50;99.90;;;;;;5013392;28;20503;-75
2022/01/17 06:35:42;;;;;;;21.13;5.53;;;6.60;99.90;;;;;;5014094;28;20053;-74
2022/01/17 06:38:08;;;;;;;19.57;5.40;;;6.60;99.90;;;;;;5014934;28;20053;-74
2022/01/17 06:40:34;;;;;;;20.57;5.33;;;6.60;99.90;;;;;;5013681;28;20049;-75
2022/01/17 06:43:00;;;;;;;22.52;5.60;;;6.60;99.90;;;;;;4998715;28;20045;-76
2022/01/17 06:45:26;;;;;;;18.45;6.13;;;6.50;99.90;;;;;;4998118;28;20053;-75
2022/01/17 06:47:52;;;;;;;24.90;6.57;;;6.60;99.90;;;;;;4998158;28;20041;-75
2022/01/17 06:50:18;;;;;;;21.80;6.63;;;6.60;99.90;;;;;;4980719;28;20042;-75
2022/01/17 06:52:45;;;;;;;20.60;6.47;;;6.60;99.90;;;;;;4995202;28;20251;-75
2022/01/17 06:55:11;;;;;;;28.60;7.25;;;6.60;99.90;;;;;;5005172;28;20100;-74
2022/01/17 06:57:37;;;;;;;24.53;7.90;;;6.60;99.90;;;;;;4992717;28;20124;-75
2022/01/17 07:00:10;;;;;;;21.95;7.00;;;6.70;99.90;;;;;;4993090;28;20638;-74
2022/01/17 07:02:36;;;;;;;26.00;8.00;;;6.60;99.90;;;;;;5012279;28;20057;-75
2022/01/17 07:05:02;;;;;;;21.07;6.87;;;6.60;99.90;;;;;;4990755;28;20044;-75
2022/01/17 07:07:28;;;;;;;23.52;8.30;;;6.60;99.90;;;;;;5010575;28;20054;-74
2022/01/17 07:09:57;;;;;;;22.13;7.23;;;6.60;99.90;;;;;;4987619;28;20403;-75
2022/01/17 07:12:23;;;;;;;24.33;7.47;;;6.60;99.90;;;;;;4993076;28;20104;-74
2022/01/17 07:14:49;;;;;;;22.38;7.25;;;6.60;99.90;;;;;;4978180;28;20054;-75
2022/01/17 07:17:15;;;;;;;23.30;7.40;;;6.50;99.90;;;;;;4995373;28;20049;-75
2022/01/17 07:19:41;;;;;;;25.10;8.13;;;6.50;99.90;;;;;;5011412;28;20052;-74
2022/01/17 07:22:08;;;;;;;27.67;8.00;;;6.50;99.90;;;;;;4996097;28;20041;-74
2022/01/17 07:24:35;;;;;;;27.83;8.07;;;6.60;99.90;;;;;;5007619;28;20514;-74
2022/01/17 07:27:01;;;;;;;28.60;8.20;;;6.60;99.90;;;;;;5006286;28;20572;-74
2022/01/17 07:29:27;;;;;;;24.45;8.05;;;6.60;99.90;;;;;;5010747;28;20556;-74
2022/01/17 07:31:54;;;;;;;26.67;7.43;;;6.50;99.90;;;;;;4993459;28;20041;-75
2022/01/17 07:34:20;;;;;;;29.58;7.72;;;6.50;99.90;;;;;;5007630;28;20088;-75
2022/01/17 07:36:46;;;;;;;29.60;7.50;;;6.50;99.90;;;;;;5005200;28;20037;-75
2022/01/17 07:39:12;;;;;;;27.38;8.00;;;6.50;99.90;;;;;;5022992;28;20429;-75
2022/01/17 07:41:38;;;;;;;32.97;8.93;;;6.60;99.90;;;;;;5019787;28;20037;-75
2022/01/17 07:44:05;;;;;;;26.50;7.23;;;6.50;99.90;;;;;;5012352;28;20124;-75
2022/01/17 07:46:37;;;;;;;27.47;6.83;;;6.50;99.90;;;;;;4995872;28;20041;-74
2022/01/17 07:49:10;;;;;;;31.30;7.35;;;6.50;99.90;;;;;;4995091;28;20450;-74
2022/01/17 07:51:42;;;;;;;30.10;7.65;;;6.60;99.90;;;;;;4994261;28;20562;-75
2022/01/17 07:54:10;;;;;;;28.98;7.25;;;6.60;99.90;;;;;;5013124;28;20046;-75
2022/01/17 07:56:37;;;;;;;29.10;7.07;;;6.60;99.90;;;;;;5010671;28;20037;-75
2022/01/17 07:59:05;;;;;;;25.73;6.40;;;6.60;99.90;;;;;;5025287;28;20111;-75
2022/01/17 08:01:30;;;;;;;29.83;7.13;;;6.60;99.90;;;;;;5008321;28;20049;-75
2022/01/17 08:03:56;;;;;;;26.73;7.32;;;6.70;99.90;;;;;;5008768;28;20365;-75
2022/01/17 08:06:22;;;;;;;27.17;6.67;;;6.60;99.90;;;;;;5004596;28;20061;-75
2022/01/17 08:08:48;;;;;;;27.52;7.10;;;6.60;99.90;;;;;;5008367;28;20041;-75
2022/01/17 08:11:14;;;;;;;31.10;6.90;;;6.70;99.90;;;;;;4994455;28;20543;-75
2022/01/17 08:13:40;;;;;;;26.63;6.10;;;6.60;99.90;;;;;;4994997;28;20137;-75
2022/01/17 08:16:06;;;;;;;33.38;6.57;;;6.70;99.90;;;;;;5042602;28;20033;-76
2022/01/17 08:18:32;;;;;;;27.25;6.70;;;6.70;99.90;;;;;;5003995;28;20452;-75
2022/01/17 08:20:58;;;;;;;30.05;5.93;;;6.70;99.90;;;;;;5043260;28;20053;-75
2022/01/17 08:23:25;;;;;;;29.02;6.15;;;6.70;99.90;;;;;;5026818;28;20504;-75
2022/01/17 08:25:51;;;;;;;34.93;6.27;;;6.70;99.90;;;;;;5007493;28;20061;-75
2022/01/17 08:28:17;;;;;;;27.37;5.40;;;6.80;99.90;;;;;;5023067;28;20523;-75
2022/01/17 08:30:43;;;;;;;24.13;6.03;;;6.80;99.90;;;;;;5007132;28;20575;-75
2022/01/17 08:33:09;;;;;;;25.77;5.47;;;6.80;99.90;;;;;;4989332;28;20040;-76
2022/01/17 08:35:35;;;;;;;31.63;5.45;;;6.80;99.90;;;;;;5024130;28;20122;-76
2022/01/17 08:38:01;;;;;;;30.98;6.38;;;6.80;99.90;;;;;;4989852;28;20052;-75
2022/01/17 08:40:27;;;;;;;20.73;5.53;;;6.90;99.90;;;;;;5007697;28;20520;-76
2022/01/17 08:42:53;;;;;;;26.38;5.40;;;6.90;99.90;;;;;;5024828;28;20077;-75
2022/01/17 08:45:21;;;;;;;30.25;6.10;;;7.00;99.90;;;;;;5028655;28;20123;-75
2022/01/17 08:47:49;;;;;;;29.23;5.10;;;7.00;99.90;;;;;;5028092;28;20057;-76
2022/01/17 08:50:17;;;;;;;31.75;5.63;;;7.00;99.90;;;;;;5010855;28;20056;-74
2022/01/17 08:52:47;;;;;;;26.33;5.95;;;7.00;99.90;;;;;;5011234;28;20048;-75
2022/01/17 08:55:14;;;;;;;30.40;5.70;;;7.10;99.90;;;;;;5010560;28;20037;-76
2022/01/17 08:57:40;;;;;;;28.90;6.05;;;7.10;99.90;;;;;;5028181;28;20420;-75
2022/01/17 09:00:13;;;;;;;30.92;5.80;;;7.10;99.90;;;;;;4994477;28;20043;-75
2022/01/17 09:02:39;;;;;;;26.27;6.07;;;7.20;99.90;;;;;;5043366;28;20037;-74
2022/01/17 09:05:05;;;;;;;38.53;6.07;;;7.20;99.90;;;;;;5009144;28;20079;-75
2022/01/17 09:07:31;;;;;;;36.43;6.30;;;7.20;99.90;;;;;;5020193;28;20048;-75
2022/01/17 09:10:00;;;;;;;35.63;6.35;;;7.20;99.90;;;;;;5010054;28;20038;-74
2022/01/17 09:12:26;;;;;;;32.58;6.15;;;7.20;99.90;;;;;;5026506;28;20407;-74
2022/01/17 09:14:51;;;;;;;36.30;5.88;;;7.20;99.90;;;;;;5025829;28;20060;-75
2022/01/17 09:17:17;;;;;;;35.10;6.40;;;7.30;99.90;;;;;;5008910;28;20095;-75
2022/01/17 09:19:44;;;;;;;36.40;6.53;;;7.30;99.90;;;;;;5009106;28;20072;-74
2022/01/17 09:22:10;;;;;;;33.67;6.63;;;7.30;99.90;;;;;;5026282;28;20046;-75
2022/01/17 09:24:38;;;;;;;27.90;5.38;;;7.40;99.90;;;;;;5011086;28;20084;-74
2022/01/17 09:27:05;;;;;;;34.13;5.15;;;7.40;99.90;;;;;;5030254;28;20057;-74
2022/01/17 09:29:32;;;;;;;34.10;6.43;;;7.40;99.90;;;;;;5027244;28;20063;-75
2022/01/17 09:31:59;;;;;;;37.78;6.60;;;7.40;99.90;;;;;;5004082;28;20049;-74
2022/01/17 09:34:25;;;;;;;27.50;5.15;;;7.50;99.90;;;;;;4997183;28;20057;-75
2022/01/17 09:36:53;;;;;;;36.35;6.10;;;7.60;99.90;;;;;;5007790;28;20038;-74
2022/01/17 09:39:19;;;;;;;33.65;5.40;;;7.60;99.90;;;;;;5017029;28;20398;-75
2022/01/17 09:41:46;;;;;;;36.63;5.53;;;7.60;99.90;;;;;;5030325;28;20446;-75
2022/01/17 09:44:12;;;;;;;32.53;5.47;;;7.70;99.90;;;;;;4998749;28;20043;-75
2022/01/17 09:46:45;;;;;;;32.13;6.18;;;7.80;99.90;;;;;;5031023;28;20351;-74
2022/01/17 09:49:23;;;;;;;27.88;5.57;;;7.80;99.90;;;;;;5047721;28;20049;-75
2022/01/17 09:54:29;;;;;;;31.10;5.55;;;8.10;99.90;;;;;;5023305;28;20530;-75
2022/01/17 09:56:57;;;;;;;33.47;5.47;;;8.20;99.90;;;;;;5010357;28;20042;-75
2022/01/17 09:59:23;;;;;;;30.80;5.65;;;8.20;99.90;;;;;;4989468;28;20046;-75
2022/01/17 10:01:50;;;;;;;32.67;5.75;;;8.30;99.90;;;;;;4987440;28;20046;-74
2022/01/17 10:04:17;;;;;;;34.05;5.18;;;8.40;99.90;;;;;;4990419;28;20396;-74
2022/01/17 10:06:53;;;;;;;28.77;4.75;;;8.50;99.90;;;;;;5000197;28;20492;-74
2022/01/17 10:09:21;;;;;;;38.35;7.68;;;8.60;99.90;;;;;;4992871;28;20133;-75
2022/01/17 10:12:10;;;;;;;33.05;5.70;;;8.60;99.90;;;;;;4993225;28;20415;-74
2022/01/17 10:14:41;;;;;;;30.10;5.15;;;8.70;99.90;;;;;;5008519;28;20049;-74
2022/01/17 10:17:08;;;;;;;;;;;8.70;99.90;;;;;;4992610;28;20117;-75
2022/01/17 10:19:35;;;;;;;34.08;6.43;;;8.80;99.90;;;;;;5003818;28;19921;-74
2022/01/17 10:22:07;;;;;;;32.20;5.82;;;8.80;99.90;;;;;;5009052;28;20103;-74
2022/01/17 10:35:24;;;;;;;38.75;7.00;;;9.00;99.90;;;;;;5016139;28;20050;-75
2022/01/17 10:38:02;;;;;;;32.50;5.97;;;9.10;99.90;;;;;;5026000;28;20057;-75
2022/01/17 10:40:31;;;;;;;30.77;5.07;;;9.20;99.90;;;;;;5023059;28;20045;-75
2022/01/17 10:42:59;;;;;;;27.60;5.53;;;9.20;99.90;;;;;;4990682;28;20408;-74
2022/01/17 10:45:33;;;;;;;32.58;5.88;;;9.20;99.90;;;;;;5007679;28;20065;-75
2022/01/17 10:48:01;;;;;;;27.08;5.47;;;9.30;99.90;;;;;;5007396;28;20049;-75
2022/01/17 10:50:31;;;;;;;35.97;6.68;;;9.30;99.90;;;;;;5024218;28;20046;-75
2022/01/17 10:53:01;;;;;;;31.55;6.15;;;9.40;99.90;;;;;;5024833;28;20112;-75
2022/01/17 10:55:31;;;;;;;28.53;5.70;;;9.40;99.90;;;;;;5024518;28;20129;-75
2022/01/17 10:57:59;;;;;;;37.33;6.70;;;9.40;99.90;;;;;;5027569;28;20083;-75
2022/01/17 11:00:31;;;;;;;34.97;5.85;;;9.40;99.90;;;;;;5027433;28;20037;-76
2022/01/17 11:02:59;;;;;;;39.08;6.18;;;9.40;99.90;;;;;;5031385;28;20045;-76
2022/01/17 11:05:28;;;;;;;36.53;7.90;;;9.30;99.90;;;;;;5026837;28;20140;-76
2022/01/17 11:07:58;;;;;;;40.33;6.97;;;9.30;99.90;;;;;;5030390;28;20057;-76
2022/01/17 11:10:27;;;;;;;40.20;7.15;;;9.30;99.90;;;;;;5007999;28;20462;-75
2022/01/17 11:12:54;;;;;;;37.50;7.50;;;9.40;99.90;;;;;;5023808;28;20041;-76
2022/01/17 11:15:21;;;;;;;39.15;6.75;;;9.30;99.90;;;;;;5022891;28;20503;-76
2022/01/17 11:17:51;;;;;;;37.22;7.70;;;9.40;99.90;;;;;;4997695;28;20586;-76
2022/01/17 11:20:19;;;;;;;33.50;6.03;;;9.40;99.90;;;;;;5013445;28;20033;-75
2022/01/17 11:22:46;;;;;;;33.53;5.78;;;9.30;99.90;;;;;;4995245;28;20416;-76
2022/01/17 11:25:23;;;;;;;34.85;6.60;;;9.40;99.90;;;;;;5011444;28;20496;-75
2022/01/17 11:27:50;;;;;;;39.72;6.50;;;9.40;99.90;;;;;;5008846;28;20102;-76
2022/01/17 11:30:16;;;;;;;38.80;6.47;;;9.40;99.90;;;;;;5014616;28;20519;-75
2022/01/17 11:32:45;;;;;;;36.40;7.47;;;9.50;99.90;;;;;;5025896;28;20054;-76
2022/01/17 11:35:13;;;;;;;41.63;8.18;;;9.50;99.90;;;;;;5027431;28;20049;-76
2022/01/17 11:37:42;;;;;;;36.58;7.38;;;9.60;99.90;;;;;;5007018;28;20512;-75
2022/01/17 11:40:10;;;;;;;39.90;7.75;;;9.60;99.90;;;;;;5022963;28;20076;-76
2022/01/17 11:42:45;;;;;;;36.60;7.80;;;9.60;99.90;;;;;;5001109;28;20037;-75
2022/01/17 11:45:23;;;;;;;41.90;7.05;;;9.70;99.90;;;;;;5024246;28;20081;-75
2022/01/17 11:47:54;;;;;;;36.95;10.15;;;9.70;99.90;;;;;;5007271;28;20140;-74
2022/01/17 11:50:31;;;;;;;41.00;7.60;;;9.70;99.90;;;;;;5009893;28;20141;-75
2022/01/17 11:52:57;;;;;;;33.28;9.00;;;9.60;99.90;;;;;;4995032;28;20362;-74
2022/01/17 11:55:44;;;;;;;33.53;6.93;;;9.70;99.90;;;;;;5007807;28;20054;-75
2022/01/17 11:58:26;;;;;;;35.03;6.68;;;9.80;99.90;;;;;;4999005;28;20774;-75
2022/01/17 12:00:58;;;;;;;41.58;8.23;;;9.90;99.90;;;;;;5025084;28;20132;-75
2022/01/17 12:03:38;;;;;;;36.58;6.97;;;10.00;99.90;;;;;;5027255;28;20056;-75
2022/01/17 12:06:36;;;;;;;34.58;6.90;;;10.00;99.90;;;;;;5032276;28;20056;-75
2022/01/17 12:09:27;;;;;;;40.15;7.28;;;10.00;99.90;;;;;;5005387;28;20049;-75
2022/01/17 12:11:56;;;;;;;31.00;5.93;;;10.10;99.90;;;;;;5009355;28;20049;-77
2022/01/17 12:14:30;;;;;;;36.70;6.85;;;10.10;99.90;;;;;;5017212;28;20055;-76
2022/01/17 12:17:21;;;;;;;38.05;8.18;;;10.10;99.90;;;;;;5029021;28;20084;-74
2022/01/17 12:22:38;;;;;;;39.58;7.03;;;10.10;99.90;;;;;;5027810;28;20049;-74
2022/01/17 12:25:27;;;;;;;40.75;7.35;;;10.10;99.90;;;;;;5021674;28;20175;-74
2022/01/17 12:28:08;;;;;;;41.25;7.07;;;10.00;99.90;;;;;;5022180;28;20568;-75
2022/01/17 12:30:57;;;;;;;34.97;6.10;;;10.00;99.90;;;;;;5028140;28;20061;-74
2022/01/17 12:33:37;;;;;;;37.65;7.10;;;10.00;99.90;;;;;;5009731;28;20045;-75
2022/01/17 12:36:29;;;;;;;35.17;6.70;;;10.10;99.90;;;;;;5007815;28;20040;-75
2022/01/17 12:39:16;;;;;;;35.05;7.10;;;10.10;99.90;;;;;;5014707;28;20057;-75
2022/01/17 12:41:44;;;;;;;29.58;5.78;;;10.10;99.90;;;;;;5029228;28;20052;-74
2022/01/17 12:44:28;;;;;;;26.02;6.13;;;10.10;99.90;;;;;;4993917;28;20120;-74
2022/01/17 12:46:56;;;;;;;40.28;6.53;;;10.10;99.90;;;;;;5024481;28;20045;-75
2022/01/17 12:49:22;;;;;;;35.05;7.10;;;10.00;99.90;;;;;;5042835;28;20550;-73
2022/01/17 12:51:54;;;;;;;31.35;6.10;;;10.10;99.90;;;;;;5026539;28;20041;-72
2022/01/17 12:54:22;;;;;;;30.80;6.68;;;10.00;99.90;;;;;;5030490;28;20072;-74
2022/01/17 12:56:51;;;;;;;28.95;4.85;;;10.00;99.90;;;;;;5031627;28;20044;-75
2022/01/17 12:59:18;;;;;;;33.13;5.60;;;10.00;99.90;;;;;;5030652;28;20044;-75
2022/01/17 13:01:51;;;;;;;30.98;6.32;;;10.00;99.90;;;;;;5015064;28;20060;-75
2022/01/17 13:04:18;;;;;;;27.52;6.40;;;10.00;99.90;;;;;;5026620;28;20033;-74
2022/01/17 13:06:48;;;;;;;29.23;6.18;;;10.00;99.90;;;;;;5026130;28;20129;-74
2022/01/17 13:09:16;;;;;;;24.67;6.55;;;10.00;99.90;;;;;;5028366;28;20205;-75
2022/01/17 13:11:43;;;;;;;28.90;5.63;;;10.00;99.90;;;;;;5011361;28;20403;-75
2022/01/17 13:14:13;;;;;;;30.75;5.97;;;10.00;99.90;;;;;;5026565;28;20045;-75
2022/01/17 13:16:40;;;;;;;25.80;5.22;;;9.90;99.90;;;;;;5040925;28;20049;-74
2022/01/17 13:19:12;;;;;;;34.85;6.70;;;9.90;99.90;;;;;;5010232;28;20050;-75